Time;durP1;ratioP1;P1;durP2;ratioP2;P2;SDS_P1;SDS_P2;PMS_P1;PMS_P2;Temp;Humidity;BMP_temperature;BMP_pressure;BME280_temperature;BME280_humidity;BME280_pressure;Samples;Min_cycle;Max_cycle;Signal;HPM_P1;HPM_P2
2021/03/08 00:00:57;;;;;;;15.57;10.90;;;-0.50;99.90;;;;;;4973925;28;20466;-88
2021/03/08 00:03:24;;;;;;;17.80;11.07;;;-0.50;99.90;;;;;;4977341;28;20489;-89
2021/03/08 00:05:50;;;;;;;15.80;10.80;;;-0.60;99.90;;;;;;4988293;28;20461;-89
2021/03/08 00:08:17;;;;;;;17.80;10.10;;;-0.60;99.90;;;;;;4982859;28;20510;-88
2021/03/08 00:10:43;;;;;;;16.33;10.20;;;-0.50;99.90;;;;;;4977475;28;20438;-90
2021/03/08 00:13:10;;;;;;;13.73;10.23;;;-0.60;99.90;;;;;;4974539;28;20477;-88
2021/03/08 00:15:36;;;;;;;16.40;10.63;;;-0.60;99.90;;;;;;4977070;28;20461;-88
2021/03/08 00:18:03;;;;;;;18.70;10.60;;;-0.60;99.90;;;;;;4973091;28;20455;-89
2021/03/08 00:20:30;;;;;;;17.37;11.00;;;-0.70;99.90;;;;;;4977527;28;20453;-88
2021/03/08 00:22:57;;;;;;;17.20;11.73;;;-0.70;99.90;;;;;;4943578;28;20504;-90
2021/03/08 00:25:26;;;;;;;14.87;10.40;;;-0.70;99.90;;;;;;4982386;28;20465;-90
2021/03/08 00:27:53;;;;;;;14.77;10.00;;;-0.80;99.90;;;;;;4981044;28;20953;-87
2021/03/08 00:30:20;;;;;;;13.53;9.83;;;-0.70;99.90;;;;;;4977442;28;20453;-91
2021/03/08 00:32:47;;;;;;;19.70;10.20;;;-0.70;99.90;;;;;;4976981;28;20452;-89
2021/03/08 00:35:14;;;;;;;14.87;9.90;;;-0.60;99.90;;;;;;4975515;28;20546;-88
2021/03/08 00:37:42;;;;;;;17.20;10.73;;;-0.70;99.90;;;;;;4976317;28;20577;-91
2021/03/08 00:40:10;;;;;;;18.87;11.30;;;-0.90;99.90;;;;;;4976435;28;20452;-87
2021/03/08 00:42:38;;;;;;;15.07;10.20;;;-0.80;99.90;;;;;;4976478;28;20519;-87
2021/03/08 00:45:06;;;;;;;14.77;10.80;;;-0.90;99.90;;;;;;4976547;28;20462;-90
2021/03/08 00:47:33;;;;;;;17.00;10.87;;;-0.90;99.90;;;;;;4976683;28;20462;-87
2021/03/08 00:49:59;;;;;;;24.83;11.90;;;-0.80;99.90;;;;;;4991464;28;20465;-88
2021/03/08 00:52:25;;;;;;;20.20;12.20;;;-0.90;99.90;;;;;;4984868;28;20484;-89
2021/03/08 00:54:53;;;;;;;16.37;11.40;;;-1.00;99.90;;;;;;4973852;28;20460;-87
2021/03/08 00:57:19;;;;;;;17.87;11.00;;;-1.10;99.90;;;;;;4974984;28;20959;-89
2021/03/08 00:59:45;;;;;;;15.97;11.10;;;-1.10;99.90;;;;;;4975632;28;20461;-89
2021/03/08 01:02:12;;;;;;;17.87;11.50;;;-1.00;99.90;;;;;;4971580;28;20570;-87
2021/03/08 01:04:38;;;;;;;15.53;10.30;;;-1.00;99.90;;;;;;4975309;28;20462;-88
2021/03/08 01:07:04;;;;;;;15.87;10.70;;;-1.00;99.90;;;;;;4976342;28;20493;-89
2021/03/08 01:09:30;;;;;;;17.53;11.57;;;-1.00;99.90;;;;;;4970390;28;20467;-89
2021/03/08 01:11:58;;;;;;;14.60;10.43;;;-1.10;99.90;;;;;;4975944;28;20531;-88
2021/03/08 01:14:24;;;;;;;15.63;10.70;;;-1.00;99.90;;;;;;4975596;28;20444;-88
2021/03/08 01:16:51;;;;;;;17.83;10.73;;;-1.00;99.90;;;;;;4968089;28;20468;-88
2021/03/08 01:19:17;;;;;;;17.20;10.83;;;-1.00;99.90;;;;;;4974708;28;20468;-87
2021/03/08 01:21:43;;;;;;;17.77;11.07;;;-1.00;99.90;;;;;;4975678;28;20485;-91
2021/03/08 01:24:10;;;;;;;18.17;11.43;;;-0.90;99.90;;;;;;4975844;28;20937;-89
2021/03/08 01:26:37;;;;;;;18.33;11.93;;;-1.00;99.90;;;;;;4975931;28;20457;-88
2021/03/08 01:29:05;;;;;;;16.80;10.80;;;-1.10;99.90;;;;;;4975753;28;20454;-89
2021/03/08 01:31:31;;;;;;;21.77;11.40;;;-1.10;99.90;;;;;;4942464;28;20491;-89
2021/03/08 01:33:58;;;;;;;16.97;10.80;;;-0.40;99.90;;;;;;4977556;28;20449;-86
2021/03/08 01:36:24;;;;;;;18.57;11.17;;;-1.30;99.90;;;;;;4987587;28;20457;-88
2021/03/08 01:38:51;;;;;;;14.07;9.93;;;-1.30;99.90;;;;;;4976079;28;20479;-91
2021/03/08 01:41:17;;;;;;;15.77;10.30;;;-1.30;99.90;;;;;;4973540;28;20809;-88
2021/03/08 01:43:44;;;;;;;17.40;10.37;;;-1.30;99.90;;;;;;4969099;28;20545;-89
2021/03/08 01:46:11;;;;;;;16.77;11.13;;;-1.30;99.90;;;;;;4968698;28;20449;-89
2021/03/08 01:48:37;;;;;;;12.70;9.50;;;-1.30;99.90;;;;;;4974531;28;20947;-89
2021/03/08 01:51:05;;;;;;;16.03;9.63;;;-1.30;99.90;;;;;;4975525;28;20464;-90
2021/03/08 01:53:35;;;;;;;14.03;9.43;;;-1.30;99.90;;;;;;4975251;28;20462;-91
2021/03/08 01:56:02;;;;;;;14.93;9.70;;;-1.30;99.90;;;;;;4975273;28;20456;-89
2021/03/08 01:58:28;;;;;;;11.50;8.87;;;-1.40;99.90;;;;;;4975076;28;20485;-88
2021/03/08 02:00:55;;;;;;;14.93;9.00;;;-1.40;99.90;;;;;;4975039;28;20912;-88
2021/03/08 02:03:23;;;;;;;12.63;9.67;;;-1.50;99.90;;;;;;4973927;28;20512;-89
2021/03/08 02:05:49;;;;;;;13.43;10.20;;;-1.50;99.90;;;;;;4975360;28;20446;-91
2021/03/08 02:08:20;;;;;;;13.23;9.50;;;-1.50;99.90;;;;;;4975177;28;20475;-87
2021/03/08 02:10:47;;;;;;;13.73;9.87;;;-1.50;99.90;;;;;;4975335;28;20457;-88
2021/03/08 02:13:25;;;;;;;12.63;9.10;;;-1.50;99.90;;;;;;4974936;28;20485;-88
2021/03/08 02:15:58;;;;;;;12.10;8.80;;;-1.60;99.90;;;;;;4975289;28;20452;-93
2021/03/08 02:18:36;;;;;;;13.47;9.80;;;-1.60;99.90;;;;;;4974174;28;20455;-90
2021/03/08 02:21:27;;;;;;;12.80;9.13;;;-1.60;99.90;;;;;;4974892;28;20452;-92
2021/03/08 02:24:29;;;;;;;17.10;10.03;;;-1.60;99.90;;;;;;4975016;28;21003;-91
2021/03/08 02:26:59;;;;;;;14.97;8.53;;;-1.60;99.90;;;;;;4974848;28;20457;-92
2021/03/08 02:29:54;;;;;;;12.50;8.87;;;-1.70;99.90;;;;;;4972967;28;21014;-90
2021/03/08 02:32:26;;;;;;;12.40;9.10;;;-1.70;99.90;;;;;;4974796;28;20457;-92
2021/03/08 02:34:59;;;;;;;13.00;8.90;;;-1.70;99.90;;;;;;4973883;28;20944;-90
2021/03/08 02:37:30;;;;;;;12.33;8.27;;;-1.70;99.90;;;;;;4974738;28;20457;-93
2021/03/08 02:40:04;;;;;;;12.70;8.37;;;-1.80;99.90;;;;;;4974922;28;20443;-91
2021/03/08 02:42:37;;;;;;;14.17;8.73;;;-1.80;99.90;;;;;;4974372;28;20559;-91
2021/03/08 02:45:05;;;;;;;20.33;8.70;;;-1.80;99.90;;;;;;4972990;28;20457;-88
2021/03/08 02:47:37;;;;;;;14.53;9.27;;;-1.80;99.90;;;;;;4975077;28;21000;-89
2021/03/08 02:50:06;;;;;;;16.70;9.60;;;-1.90;99.90;;;;;;4977924;28;20437;-92
2021/03/08 02:52:35;;;;;;;14.27;9.40;;;-1.90;99.90;;;;;;4979176;28;20539;-88
2021/03/08 02:55:04;;;;;;;11.87;8.90;;;-1.90;99.90;;;;;;4978235;28;20942;-90
2021/03/08 02:57:35;;;;;;;13.13;8.90;;;-2.00;99.90;;;;;;4973530;28;20484;-91
2021/03/08 03:00:07;;;;;;;16.00;9.37;;;-2.00;99.90;;;;;;4974989;28;20476;-89
2021/03/08 03:02:36;;;;;;;12.07;9.50;;;-2.00;99.90;;;;;;4972961;28;20558;-86
2021/03/08 03:05:06;;;;;;;15.60;9.90;;;-2.00;99.90;;;;;;4989605;28;20451;-86
2021/03/08 03:07:33;;;;;;;15.03;11.07;;;-1.90;99.90;;;;;;4996628;28;20455;-88
2021/03/08 03:10:01;;;;;;;15.50;9.70;;;-1.90;99.90;;;;;;4977605;28;20451;-91
2021/03/08 03:12:29;;;;;;;12.30;8.80;;;-1.80;99.90;;;;;;4972078;28;20474;-90
2021/03/08 03:14:57;;;;;;;15.67;9.17;;;-1.80;99.90;;;;;;4973241;28;20437;-90
2021/03/08 03:17:24;;;;;;;17.60;10.13;;;-1.80;99.90;;;;;;4975452;28;20480;-90
2021/03/08 03:19:53;;;;;;;14.80;9.73;;;-1.80;99.90;;;;;;4974257;28;20455;-92
2021/03/08 03:22:22;;;;;;;15.83;10.37;;;-1.80;99.90;;;;;;4975203;28;20857;-89
2021/03/08 03:24:50;;;;;;;16.70;10.80;;;-1.80;99.90;;;;;;4968707;28;20439;-90
2021/03/08 03:27:17;;;;;;;17.17;11.20;;;-1.70;99.90;;;;;;4975612;28;20424;-92
2021/03/08 03:29:45;;;;;;;14.10;9.73;;;-1.60;99.90;;;;;;4978254;28;20471;-91
2021/03/08 03:32:14;;;;;;;14.60;9.70;;;-1.70;99.90;;;;;;4973283;28;20452;-91
2021/03/08 03:34:41;;;;;;;15.70;10.30;;;-1.70;99.90;;;;;;4975799;28;20989;-91
2021/03/08 03:37:08;;;;;;;14.50;10.20;;;-1.80;99.90;;;;;;4978526;28;20923;-90
2021/03/08 03:39:35;;;;;;;18.57;10.33;;;-1.80;99.90;;;;;;4978898;28;20467;-90
2021/03/08 03:42:02;;;;;;;15.97;9.97;;;-1.80;99.90;;;;;;4975313;28;20998;-88
2021/03/08 03:44:29;;;;;;;15.77;9.93;;;-1.90;99.90;;;;;;4979285;28;20460;-91
2021/03/08 03:46:58;;;;;;;15.40;9.23;;;-2.00;99.90;;;;;;4985225;28;20445;-88
2021/03/08 03:49:24;;;;;;;13.77;9.27;;;-2.00;99.90;;;;;;4980711;28;20451;-90
2021/03/08 03:51:51;;;;;;;15.53;10.30;;;-2.10;99.90;;;;;;4979233;28;20468;-91
2021/03/08 03:54:19;;;;;;;13.00;9.67;;;-2.10;99.90;;;;;;4978415;28;20452;-89
2021/03/08 03:56:52;;;;;;;12.83;8.80;;;-2.20;99.90;;;;;;4974922;28;20486;-89
2021/03/08 03:59:23;;;;;;;16.47;10.60;;;-2.30;99.90;;;;;;4977768;28;20459;-87
2021/03/08 04:01:58;;;;;;;12.93;9.80;;;-2.20;99.90;;;;;;4977528;28;20489;-89
2021/03/08 04:04:29;;;;;;;14.10;9.80;;;-2.20;99.90;;;;;;4976953;28;20459;-90
2021/03/08 04:06:58;;;;;;;12.17;8.10;;;-2.30;99.90;;;;;;4977673;28;20450;-89
2021/03/08 04:09:25;;;;;;;11.63;9.50;;;-2.30;99.90;;;;;;4977986;28;20509;-90
2021/03/08 04:11:55;;;;;;;14.10;9.60;;;-2.40;99.90;;;;;;4975823;28;21064;-89
2021/03/08 04:14:25;;;;;;;11.83;9.07;;;-2.40;99.90;;;;;;4996773;28;20478;-91
2021/03/08 04:16:59;;;;;;;18.57;10.30;;;-2.50;99.90;;;;;;4986236;28;20812;-89
2021/03/08 04:19:46;;;;;;;16.70;11.20;;;-2.40;99.90;;;;;;4985039;28;20488;-89
2021/03/08 04:22:22;;;;;;;15.03;10.93;;;-2.10;99.90;;;;;;4992407;28;21011;-91
2021/03/08 04:24:53;;;;;;;17.03;11.60;;;-2.20;99.90;;;;;;4986544;28;20443;-91
2021/03/08 04:27:26;;;;;;;15.40;11.60;;;-2.00;99.90;;;;;;4987566;28;20453;-87
2021/03/08 04:29:53;;;;;;;16.33;11.57;;;-2.10;99.90;;;;;;4982828;28;20450;-91
2021/03/08 04:32:24;;;;;;;15.83;12.17;;;-2.20;99.90;;;;;;4990180;28;20466;-89
2021/03/08 04:35:00;;;;;;;18.03;12.50;;;-2.20;99.90;;;;;;4983165;28;20456;-89
2021/03/08 04:37:27;;;;;;;16.87;11.10;;;-2.30;99.90;;;;;;4981833;28;20416;-91
2021/03/08 04:39:55;;;;;;;17.50;11.80;;;-2.30;99.90;;;;;;4983399;28;20449;-92
2021/03/08 04:42:21;;;;;;;17.50;11.50;;;-2.30;99.90;;;;;;4996519;28;20507;-92
2021/03/08 04:44:49;;;;;;;15.57;11.83;;;-2.30;99.90;;;;;;4991595;28;20454;-92
2021/03/08 04:47:17;;;;;;;16.33;11.00;;;-2.20;99.90;;;;;;4996486;28;20506;-91
2021/03/08 04:49:46;;;;;;;14.90;10.90;;;-2.30;99.90;;;;;;4994192;28;20464;-93
2021/03/08 04:52:14;;;;;;;18.83;12.60;;;-2.40;99.90;;;;;;4994773;28;20917;-92
2021/03/08 04:54:43;;;;;;;18.60;11.23;;;-2.40;99.90;;;;;;4996894;28;20457;-91
2021/03/08 04:57:12;;;;;;;17.60;12.30;;;-2.30;99.90;;;;;;4993463;28;20480;-92
2021/03/08 04:59:39;;;;;;;16.80;11.60;;;-2.40;99.90;;;;;;4998125;28;20438;-91
2021/03/08 05:02:09;;;;;;;21.37;13.07;;;-2.40;99.90;;;;;;5001278;28;20862;-91
2021/03/08 05:04:38;;;;;;;16.47;11.90;;;-2.40;99.90;;;;;;4995970;28;20455;-92
2021/03/08 05:07:08;;;;;;;18.23;12.10;;;-2.40;99.90;;;;;;4990811;28;20446;-91
2021/03/08 05:09:36;;;;;;;16.83;12.00;;;-2.30;99.90;;;;;;4996617;28;20444;-94
2021/03/08 05:12:05;;;;;;;24.93;12.23;;;-2.40;99.90;;;;;;4993896;28;20520;-91
2021/03/08 05:14:34;;;;;;;20.37;11.77;;;-2.40;99.90;;;;;;4994177;28;20452;-90
2021/03/08 05:17:01;;;;;;;19.40;12.60;;;-2.50;99.90;;;;;;4996505;28;20929;-91
2021/03/08 05:19:28;;;;;;;17.60;12.30;;;-2.20;99.90;;;;;;4992928;28;20460;-91
2021/03/08 05:21:55;;;;;;;16.80;12.33;;;-2.50;99.90;;;;;;4995187;28;20482;-90
2021/03/08 05:24:22;;;;;;;17.00;11.67;;;-2.60;99.90;;;;;;5013077;28;20437;-89
2021/03/08 05:26:48;;;;;;;18.90;11.87;;;-2.60;99.90;;;;;;4998483;28;20449;-91
2021/03/08 05:29:16;;;;;;;17.13;12.37;;;-2.60;99.90;;;;;;4998870;28;20470;-91
2021/03/08 05:31:45;;;;;;;20.43;12.93;;;-2.60;99.90;;;;;;4993937;28;20456;-91
2021/03/08 05:34:15;;;;;;;22.97;13.00;;;-2.60;99.90;;;;;;4995930;28;20457;-91
2021/03/08 05:36:44;;;;;;;28.03;13.93;;;-2.60;99.90;;;;;;4995940;28;20801;-92
2021/03/08 05:39:12;;;;;;;19.97;13.17;;;-2.70;99.90;;;;;;4996184;28;20817;-92
2021/03/08 05:41:50;;;;;;;18.90;12.63;;;-2.70;99.90;;;;;;4996016;28;20461;-92
2021/03/08 05:44:19;;;;;;;18.00;12.50;;;-2.70;99.90;;;;;;4993151;28;20432;-92
2021/03/08 05:47:04;;;;;;;17.57;12.90;;;-2.80;99.90;;;;;;4995992;28;20420;-91
2021/03/08 05:49:57;;;;;;;19.43;12.97;;;-2.70;99.90;;;;;;4996577;28;20453;-91
2021/03/08 05:53:17;;;;;;;20.90;12.63;;;-2.70;99.90;;;;;;4988990;28;20922;-91
2021/03/08 05:55:59;;;;;;;18.37;13.50;;;-2.70;99.90;;;;;;4997213;28;20474;-93
2021/03/08 05:58:39;;;;;;;19.37;12.83;;;-2.70;99.90;;;;;;4997237;28;20485;-91
2021/03/08 06:01:57;;;;;;;17.57;12.20;;;-2.70;99.90;;;;;;5009999;28;20507;-88
2021/03/08 06:04:27;;;;;;;18.47;12.73;;;-2.70;99.90;;;;;;4948702;29;20452;-90
2021/03/08 06:07:44;;;;;;;15.63;11.93;;;-2.70;99.90;;;;;;4949721;29;20449;-90
2021/03/08 06:10:20;;;;;;;21.13;13.03;;;-2.70;99.90;;;;;;4952160;28;20477;-93
2021/03/08 06:12:49;;;;;;;19.80;12.17;;;-2.60;99.90;;;;;;4994277;28;20488;-92
2021/03/08 06:15:19;;;;;;;19.63;12.83;;;-2.50;99.90;;;;;;4996046;28;20524;-94
2021/03/08 06:17:48;;;;;;;17.90;12.27;;;-2.40;99.90;;;;;;4996179;28;20450;-91
2021/03/08 06:20:19;;;;;;;17.53;12.30;;;-2.20;99.90;;;;;;4991030;28;20450;-91
2021/03/08 06:22:46;;;;;;;15.43;12.43;;;-2.10;99.90;;;;;;4996679;28;20844;-90
2021/03/08 06:25:13;;;;;;;17.37;12.00;;;-1.90;99.90;;;;;;4995642;28;20452;-87
2021/03/08 06:27:42;;;;;;;20.30;11.90;;;-1.70;99.90;;;;;;4995150;28;20492;-88
2021/03/08 06:30:09;;;;;;;24.97;13.50;;;-1.50;99.90;;;;;;4993350;28;20442;-88
2021/03/08 06:32:36;;;;;;;17.17;12.93;;;-1.40;99.90;;;;;;4996485;28;20448;-89
2021/03/08 06:35:03;;;;;;;16.23;13.10;;;-1.30;99.90;;;;;;4995608;28;20833;-90
2021/03/08 06:37:31;;;;;;;18.10;14.00;;;-1.20;99.90;;;;;;4995061;28;20464;-90
2021/03/08 06:39:57;;;;;;;17.27;12.90;;;-1.20;99.90;;;;;;4996187;28;20442;-88
2021/03/08 06:42:42;;;;;;;17.70;12.53;;;-0.60;99.90;;;;;;4982382;28;20473;-94
2021/03/08 06:45:11;;;;;;;16.97;12.80;;;-0.60;99.90;;;;;;4991450;28;20450;-89
2021/03/08 06:47:38;;;;;;;16.17;13.37;;;-0.30;99.90;;;;;;4983840;28;20490;-90
2021/03/08 06:50:10;;;;;;;21.13;14.70;;;-0.20;99.90;;;;;;4978415;28;20434;-89
2021/03/08 06:52:48;;;;;;;18.07;13.10;;;-1.50;99.90;;;;;;4964471;28;20461;-89
2021/03/08 06:55:20;;;;;;;19.57;12.27;;;0.20;99.90;;;;;;4963457;28;20467;-90
2021/03/08 06:57:48;;;;;;;17.10;13.37;;;;;;;;;;4955715;29;20479;-91
2021/03/08 07:00:16;;;;;;;16.37;12.90;;;0.50;99.90;;;;;;4953676;28;20447;-89
2021/03/08 07:02:43;;;;;;;15.77;12.13;;;0.60;99.90;;;;;;4954091;29;20498;-89
2021/03/08 07:05:12;;;;;;;16.50;12.90;;;0.80;99.90;;;;;;4958453;29;20463;-89
2021/03/08 07:07:55;;;;;;;20.23;13.00;;;1.00;99.90;;;;;;4963065;29;20997;-90
2021/03/08 07:10:32;;;;;;;15.10;12.33;;;1.20;99.90;;;;;;4987806;28;20842;-90
2021/03/08 07:12:58;;;;;;;16.50;13.60;;;1.40;99.90;;;;;;5000596;28;20453;-90
2021/03/08 07:15:33;;;;;;;17.20;13.70;;;1.50;99.90;;;;;;4990337;28;20457;-90
2021/03/08 07:18:09;;;;;;;14.90;12.80;;;1.80;99.90;;;;;;4988342;28;20491;-89
2021/03/08 07:20:53;;;;;;;15.00;13.40;;;2.40;99.90;;;;;;4990709;28;20540;-92
2021/03/08 07:23:25;;;;;;;16.50;12.73;;;2.50;99.90;;;;;;4995354;28;20495;-91
2021/03/08 07:26:04;;;;;;;15.47;13.87;;;2.80;99.90;;;;;;4993863;28;20469;-88
2021/03/08 07:28:31;;;;;;;19.50;17.40;;;3.20;99.90;;;;;;4997320;28;20452;-87
2021/03/08 07:30:57;;;;;;;17.53;14.80;;;3.00;99.90;;;;;;5009280;28;20449;-90
2021/03/08 07:33:24;;;;;;;18.00;13.67;;;2.90;99.90;;;;;;4999909;28;20878;-91
2021/03/08 07:35:52;;;;;;;15.80;13.73;;;3.60;99.90;;;;;;4999251;28;20473;-89
2021/03/08 07:38:31;;;;;;;15.33;13.33;;;4.10;99.90;;;;;;4988451;28;20458;-90
2021/03/08 07:41:10;;;;;;;16.03;13.10;;;4.60;99.90;;;;;;5010129;28;20447;-89
2021/03/08 07:43:38;;;;;;;16.00;13.90;;;4.50;99.90;;;;;;4996538;28;20492;-87
2021/03/08 07:46:05;;;;;;;16.80;13.47;;;4.60;99.90;;;;;;4988854;28;20588;-90
2021/03/08 07:48:31;;;;;;;14.93;12.47;;;5.10;99.00;;;;;;4994822;28;20817;-88
2021/03/08 07:51:06;;;;;;;15.47;13.70;;;4.60;99.10;;;;;;4998576;28;20460;-88
2021/03/08 07:53:35;;;;;;;15.90;13.27;;;5.10;98.60;;;;;;4989904;28;21170;-88
2021/03/08 07:56:03;;;;;;;14.93;13.37;;;5.20;97.70;;;;;;4981444;28;20512;-89
2021/03/08 07:58:32;;;;;;;15.60;14.00;;;5.30;97.70;;;;;;4958608;29;20491;-89
2021/03/08 08:00:59;;;;;;;14.87;13.37;;;5.80;97.50;;;;;;4958652;28;20943;-90
2021/03/08 08:03:26;;;;;;;15.43;13.80;;;5.70;96.90;;;;;;4958784;28;20506;-91
2021/03/08 08:05:55;;;;;;;15.33;13.77;;;5.70;97.00;;;;;;4967107;28;20439;-90
2021/03/08 08:08:25;;;;;;;15.37;13.77;;;5.90;96.60;;;;;;4970806;28;20479;-88
2021/03/08 08:10:56;;;;;;;15.57;13.30;;;5.30;96.70;;;;;;4965507;28;20466;-89
2021/03/08 08:13:29;;;;;;;17.70;14.53;;;5.60;97.40;;;;;;4965791;28;20525;-89
2021/03/08 08:15:58;;;;;;;15.80;14.20;;;6.00;97.10;;;;;;4979801;28;20465;-91
2021/03/08 08:18:28;;;;;;;17.73;14.90;;;5.90;96.50;;;;;;4975981;28;20457;-90
2021/03/08 08:20:56;;;;;;;18.90;15.20;;;5.70;96.70;;;;;;4970876;28;20447;-90
2021/03/08 08:23:28;;;;;;;16.60;13.90;;;5.80;96.60;;;;;;4977738;28;20506;-89
2021/03/08 08:25:55;;;;;;;16.23;14.57;;;6.10;96.70;;;;;;4959357;28;20450;-87
2021/03/08 08:28:22;;;;;;;17.70;15.13;;;6.70;95.70;;;;;;4958615;28;20463;-89
2021/03/08 08:30:59;;;;;;;17.33;14.13;;;7.10;95.40;;;;;;4957910;28;20455;-90
2021/03/08 08:33:30;;;;;;;15.57;13.97;;;7.10;94.50;;;;;;4958778;28;20447;-89
2021/03/08 08:36:25;;;;;;;16.10;14.40;;;7.20;94.70;;;;;;4967430;28;20453;-91
2021/03/08 08:39:14;;;;;;;16.80;14.33;;;7.80;94.10;;;;;;4925764;28;20454;-91
2021/03/08 08:41:42;;;;;;;16.50;14.80;;;7.70;93.40;;;;;;4958847;29;20459;-90
2021/03/08 08:44:39;;;;;;;16.70;15.07;;;7.60;92.80;;;;;;4958544;29;20538;-90
2021/03/08 08:47:20;;;;;;;16.87;15.07;;;7.40;93.00;;;;;;4959053;28;20451;-93
2021/03/08 08:49:48;;;;;;;15.30;13.70;;;7.80;92.70;;;;;;4955065;29;20443;-91
2021/03/08 08:52:16;;;;;;;17.13;14.30;;;7.80;92.20;;;;;;4959251;28;20526;-91
2021/03/08 08:54:55;;;;;;;16.20;13.20;;;6.90;93.10;;;;;;4959894;28;20443;-91
2021/03/08 08:57:23;;;;;;;17.30;14.23;;;7.40;93.00;;;;;;4971156;28;20482;-89
2021/03/08 09:00:13;;;;;;;16.50;14.80;;;8.30;92.30;;;;;;4985399;28;20454;-88
2021/03/08 09:02:39;;;;;;;15.83;14.13;;;8.50;91.80;;;;;;4975256;28;20493;-87
2021/03/08 09:05:41;;;;;;;16.03;14.33;;;8.30;92.00;;;;;;4971937;28;20454;-89
2021/03/08 09:08:33;;;;;;;16.20;14.50;;;8.00;91.20;;;;;;4974597;28;20453;-89
2021/03/08 09:11:00;;;;;;;14.57;13.07;;;8.40;92.10;;;;;;4976044;28;20883;-84
2021/03/08 09:13:28;;;;;;;22.27;14.97;;;8.50;91.60;;;;;;4975326;28;20506;-85
2021/03/08 09:15:56;;;;;;;16.23;14.33;;;8.50;91.40;;;;;;4975389;28;20954;-85
2021/03/08 09:18:35;;;;;;;17.20;14.50;;;8.70;90.90;;;;;;4974034;28;20454;-88
2021/03/08 09:21:21;;;;;;;15.70;14.10;;;9.00;90.60;;;;;;4974829;28;20446;-86
2021/03/08 09:23:47;;;;;;;16.87;15.07;;;9.00;89.40;;;;;;4971488;28;20489;-86
2021/03/08 09:26:15;;;;;;;15.97;14.37;;;9.10;89.70;;;;;;4975070;28;20484;-88
2021/03/08 09:28:51;;;;;;;15.23;13.73;;;9.10;89.50;;;;;;4970835;28;20458;-86
2021/03/08 09:31:22;;;;;;;15.60;14.07;;;9.50;88.10;;;;;;4975971;28;20472;-84
2021/03/08 09:33:48;;;;;;;15.60;14.10;;;10.10;86.00;;;;;;4985155;28;20455;-85
2021/03/08 09:36:14;;;;;;;16.90;15.10;;;9.90;84.00;;;;;;4975259;28;20454;-85
2021/03/08 09:38:41;;;;;;;16.83;13.73;;;10.30;82.80;;;;;;4989361;28;20452;-84
2021/03/08 09:41:07;;;;;;;15.30;12.97;;;10.10;83.80;;;;;;4994098;28;20456;-86
2021/03/08 09:43:34;;;;;;;14.27;12.70;;;9.60;84.50;;;;;;4994301;28;20489;-86
2021/03/08 09:46:03;;;;;;;14.93;13.43;;;9.30;83.80;;;;;;4994018;28;20449;-87
2021/03/08 09:48:32;;;;;;;16.47;13.67;;;9.90;85.80;;;;;;4993018;28;20446;-86
2021/03/08 09:51:09;;;;;;;15.30;13.90;;;10.00;83.20;;;;;;4978501;28;20454;-86
2021/03/08 09:53:37;;;;;;;15.27;12.60;;;10.80;79.30;;;;;;4978605;28;20491;-86
2021/03/08 09:56:05;;;;;;;13.50;12.10;;;11.20;77.20;;;;;;4985852;28;20457;-85
2021/03/08 09:58:31;;;;;;;14.63;12.80;;;11.00;78.50;;;;;;4995595;28;20532;-87
2021/03/08 10:00:59;;;;;;;15.10;12.53;;;11.10;77.20;;;;;;4975727;28;20843;-86
2021/03/08 10:03:26;;;;;;;13.43;10.93;;;11.00;77.50;;;;;;4973469;28;20506;-88
2021/03/08 10:05:55;;;;;;;14.20;12.70;;;11.50;74.70;;;;;;4971783;28;20442;-85
2021/03/08 10:08:29;;;;;;;15.43;13.53;;;11.50;75.30;;;;;;4974388;28;20458;-86
2021/03/08 10:10:55;;;;;;;13.67;12.30;;;11.60;74.00;;;;;;4974904;28;20491;-86
2021/03/08 10:13:22;;;;;;;13.43;12.13;;;11.30;73.00;;;;;;4993971;28;20453;-86
2021/03/08 10:15:50;;;;;;;15.13;12.67;;;10.70;74.50;;;;;;4994186;28;20446;-87
2021/03/08 10:18:17;;;;;;;13.73;12.33;;;11.20;77.10;;;;;;4993179;28;20527;-86
2021/03/08 10:20:47;;;;;;;12.00;10.80;;;11.00;74.20;;;;;;4993536;28;20455;-87
2021/03/08 10:23:15;;;;;;;14.00;12.60;;;11.60;72.20;;;;;;4993802;28;20497;-86
2021/03/08 10:25:42;;;;;;;13.27;12.17;;;9.70;76.50;;;;;;5000256;28;20453;-86
2021/03/08 10:28:08;;;;;;;14.80;11.23;;;11.00;75.90;;;;;;5006031;28;20460;-88
2021/03/08 10:30:35;;;;;;;12.17;10.83;;;11.30;75.60;;;;;;5001593;28;20453;-87
2021/03/08 10:33:03;;;;;;;14.53;12.53;;;11.40;74.40;;;;;;4992507;28;20461;-86
2021/03/08 10:35:32;;;;;;;11.30;10.20;;;11.00;74.40;;;;;;4993604;28;20453;-88
2021/03/08 10:38:02;;;;;;;14.60;11.57;;;11.10;80.20;;;;;;4990519;28;20453;-87
2021/03/08 10:40:29;;;;;;;11.40;10.40;;;11.90;72.70;;;;;;4993827;28;20457;-88
2021/03/08 10:42:59;;;;;;;12.00;10.80;;;11.50;73.20;;;;;;4989509;28;20843;-88
2021/03/08 10:45:26;;;;;;;11.40;10.20;;;11.00;73.60;;;;;;4994067;28;20461;-90
2021/03/08 10:48:10;;;;;;;10.13;9.23;;;11.60;72.90;;;;;;4988417;28;20448;-88
2021/03/08 10:50:41;;;;;;;10.40;9.40;;;11.10;70.80;;;;;;4993757;28;20523;-89
2021/03/08 10:53:09;;;;;;;9.50;8.60;;;10.30;69.50;;;;;;4990141;28;20452;-89
2021/03/08 10:55:37;;;;;;;10.93;9.60;;;9.00;72.10;;;;;;4970475;28;20446;-89
2021/03/08 10:58:03;;;;;;;9.23;7.70;;;10.30;73.70;;;;;;4975101;28;20478;-91
2021/03/08 11:00:30;;;;;;;10.93;8.83;;;10.60;68.50;;;;;;4974567;28;20447;-89
2021/03/08 11:02:59;;;;;;;10.00;9.00;;;9.70;70.40;;;;;;4971958;28;20835;-92
2021/03/08 11:05:25;;;;;;;10.17;9.20;;;11.20;71.30;;;;;;4971454;28;20513;-89
2021/03/08 11:07:52;;;;;;;9.00;8.13;;;10.20;66.80;;;;;;4969310;28;20824;-88
2021/03/08 11:10:33;;;;;;;8.53;7.07;;;9.80;70.40;;;;;;4974497;28;20520;-89
2021/03/08 11:13:01;;;;;;;9.80;8.90;;;11.20;69.20;;;;;;4994617;28;20457;-89
2021/03/08 11:15:27;;;;;;;12.03;9.53;;;9.80;71.50;;;;;;4996275;28;20457;-91
2021/03/08 11:17:53;;;;;;;9.60;8.63;;;10.60;71.50;;;;;;4994713;28;20453;-91
2021/03/08 11:20:24;;;;;;;9.33;8.43;;;11.40;70.00;;;;;;4990860;28;20466;-88
2021/03/08 11:22:55;;;;;;;9.57;8.67;;;11.90;67.20;;;;;;4933557;29;21066;-88
2021/03/08 11:25:31;;;;;;;10.50;9.50;;;12.30;65.00;;;;;;4933521;29;21027;-88
2021/03/08 11:27:58;;;;;;;9.57;8.67;;;10.50;69.10;;;;;;4933677;29;20475;-87
2021/03/08 11:30:25;;;;;;;11.60;9.97;;;10.60;65.50;;;;;;4933445;29;20458;-91
2021/03/08 11:32:53;;;;;;;9.47;8.57;;;11.30;64.30;;;;;;4928094;29;20556;-90
2021/03/08 11:35:23;;;;;;;11.63;10.53;;;11.40;64.50;;;;;;4933213;29;20451;-89
2021/03/08 11:37:51;;;;;;;12.57;8.70;;;11.10;64.90;;;;;;4933833;29;20456;-89
2021/03/08 11:40:19;;;;;;;10.50;9.40;;;11.30;67.00;;;;;;4947140;28;20512;-88
2021/03/08 11:42:46;;;;;;;10.50;9.50;;;11.50;65.80;;;;;;4993543;28;20543;-89
2021/03/08 11:45:13;;;;;;;10.63;9.60;;;10.50;65.90;;;;;;4987468;28;20457;-90
2021/03/08 11:47:40;;;;;;;9.97;9.00;;;10.90;70.20;;;;;;4996446;28;20564;-87
2021/03/08 11:50:08;;;;;;;10.73;9.73;;;11.50;68.90;;;;;;4995366;28;20453;-90
2021/03/08 11:52:34;;;;;;;11.50;10.27;;;10.50;67.20;;;;;;4997130;28;20468;-90
2021/03/08 11:55:01;;;;;;;11.57;10.37;;;11.20;69.70;;;;;;5007173;28;20455;-89
2021/03/08 11:57:28;;;;;;;9.80;8.90;;;10.40;65.20;;;;;;4998091;28;20672;-89
2021/03/08 11:59:55;;;;;;;9.87;8.87;;;9.90;66.70;;;;;;4996119;28;20490;-88
2021/03/08 12:02:22;;;;;;;11.93;10.40;;;;;;;;;;4996385;28;20480;-89
2021/03/08 12:04:48;;;;;;;10.77;9.60;;;10.80;67.90;;;;;;4995667;28;20453;-88
2021/03/08 12:07:15;;;;;;;12.50;10.00;;;11.40;66.90;;;;;;4996852;28;20450;-91
2021/03/08 12:09:41;;;;;;;10.67;9.57;;;11.00;66.40;;;;;;4994611;28;20476;-88
2021/03/08 12:12:08;;;;;;;13.60;10.10;;;11.20;63.40;;;;;;5001485;28;20457;-88
2021/03/08 12:14:34;;;;;;;14.60;10.60;;;10.90;64.40;;;;;;5005500;28;20465;-87
2021/03/08 12:17:02;;;;;;;12.37;10.10;;;11.00;67.30;;;;;;4996345;28;20516;-86
2021/03/08 12:19:28;;;;;;;11.00;9.90;;;10.40;65.70;;;;;;4994956;28;20449;-86
2021/03/08 12:21:55;;;;;;;12.10;10.70;;;10.00;68.50;;;;;;4995889;28;20461;-87
2021/03/08 12:24:21;;;;;;;11.33;9.60;;;10.00;69.30;;;;;;4995939;28;20519;-85
2021/03/08 12:26:47;;;;;;;13.73;9.20;;;10.00;67.50;;;;;;4996535;28;20493;-87
2021/03/08 12:29:13;;;;;;;12.87;11.57;;;11.60;78.20;;;;;;4995799;28;20460;-89
2021/03/08 12:31:40;;;;;;;11.20;10.00;;;11.30;68.20;;;;;;4995431;28;20461;-87
2021/03/08 12:34:07;;;;;;;11.87;10.73;;;10.50;64.50;;;;;;4995107;28;20460;-87
2021/03/08 12:36:33;;;;;;;10.57;9.47;;;11.00;67.10;;;;;;4991697;28;20953;-87
2021/03/08 12:38:59;;;;;;;10.50;9.20;;;11.20;65.50;;;;;;4996150;28;20839;-87
2021/03/08 12:41:26;;;;;;;13.13;10.00;;;10.70;64.40;;;;;;4997960;28;20511;-87
2021/03/08 12:43:52;;;;;;;11.63;9.67;;;11.40;67.40;;;;;;4990260;28;20489;-90
2021/03/08 12:46:19;;;;;;;10.83;9.73;;;11.30;64.10;;;;;;4997180;28;20449;-87
2021/03/08 12:48:45;;;;;;;13.00;10.53;;;11.30;64.00;;;;;;4995106;28;20515;-88